sensor_id;sensor_type;location;lat;lon;timestamp;temperature;humidity
7842;DHT22;3966;51.052;13.820;2022-08-21T00:00:28;18.80;99.90
7842;DHT22;3966;51.052;13.820;2022-08-21T00:02:59;18.80;99.90
7842;DHT22;3966;51.052;13.820;2022-08-21T00:05:26;18.80;99.90
7842;DHT22;3966;51.052;13.820;2022-08-21T00:07:52;18.80;99.90
7842;DHT22;3966;51.052;13.820;2022-08-21T00:10:18;18.80;99.90
7842;DHT22;3966;51.052;13.820;2022-08-21T00:12:44;18.80;99.90
7842;DHT22;3966;51.052;13.820;2022-08-21T00:15:13;18.80;99.90
7842;DHT22;3966;51.052;13.820;2022-08-21T00:17:39;18.80;99.90
7842;DHT22;3966;51.052;13.820;2022-08-21T00:20:07;18.80;99.90
7842;DHT22;3966;51.052;13.820;2022-08-21T00:22:35;18.80;99.90
7842;DHT22;3966;51.052;13.820;2022-08-21T00:25:01;18.80;99.90
7842;DHT22;3966;51.052;13.820;2022-08-21T00:27:27;18.80;99.90
7842;DHT22;3966;51.052;13.820;2022-08-21T00:29:53;18.80;99.90
7842;DHT22;3966;51.052;13.820;2022-08-21T00:32:25;18.80;99.90
7842;DHT22;3966;51.052;13.820;2022-08-21T00:34:51;18.70;99.90
7842;DHT22;3966;51.052;13.820;2022-08-21T00:37:17;18.80;99.90
7842;DHT22;3966;51.052;13.820;2022-08-21T00:39:45;18.80;99.90
7842;DHT22;3966;51.052;13.820;2022-08-21T00:42:11;18.80;99.90
7842;DHT22;3966;51.052;13.820;2022-08-21T00:44:41;18.80;99.90
7842;DHT22;3966;51.052;13.820;2022-08-21T00:47:07;18.80;99.90
7842;DHT22;3966;51.052;13.820;2022-08-21T00:49:33;18.80;99.90
7842;DHT22;3966;51.052;13.820;2022-08-21T00:52:00;18.80;99.90
7842;DHT22;3966;51.052;13.820;2022-08-21T00:54:27;18.80;99.90
7842;DHT22;3966;51.052;13.820;2022-08-21T00:56:58;18.80;99.90
7842;DHT22;3966;51.052;13.820;2022-08-21T00:59:26;18.80;99.90
7842;DHT22;3966;51.052;13.820;2022-08-21T01:01:52;18.80;99.90
7842;DHT22;3966;51.052;13.820;2022-08-21T01:04:19;18.80;99.90
7842;DHT22;3966;51.052;13.820;2022-08-21T01:06:44;18.70;99.90
7842;DHT22;3966;51.052;13.820;2022-08-21T01:09:11;18.70;99.90
7842;DHT22;3966;51.052;13.820;2022-08-21T01:11:36;18.70;99.90
7842;DHT22;3966;51.052;13.820;2022-08-21T01:14:03;18.70;99.90
7842;DHT22;3966;51.052;13.820;2022-08-21T01:16:29;18.70;99.90
7842;DHT22;3966;51.052;13.820;2022-08-21T01:18:54;18.70;99.90
7842;DHT22;3966;51.052;13.820;2022-08-21T01:21:23;18.70;99.90
7842;DHT22;3966;51.052;13.820;2022-08-21T01:23:51;18.70;99.90
7842;DHT22;3966;51.052;13.820;2022-08-21T01:26:21;18.70;99.90
7842;DHT22;3966;51.052;13.820;2022-08-21T01:31:27;18.60;99.90
7842;DHT22;3966;51.052;13.820;2022-08-21T01:33:54;18.50;99.90
7842;DHT22;3966;51.052;13.820;2022-08-21T01:36:20;18.50;99.90
7842;DHT22;3966;51.052;13.820;2022-08-21T01:38:46;18.40;99.90
7842;DHT22;3966;51.052;13.820;2022-08-21T01:41:13;18.40;99.90
7842;DHT22;3966;51.052;13.820;2022-08-21T01:43:40;18.30;99.90
7842;DHT22;3966;51.052;13.820;2022-08-21T01:46:05;18.30;99.90
7842;DHT22;3966;51.052;13.820;2022-08-21T01:48:31;18.30;99.90
7842;DHT22;3966;51.052;13.820;2022-08-21T01:50:57;18.30;99.90
7842;DHT22;3966;51.052;13.820;2022-08-21T01:53:23;18.20;99.90
7842;DHT22;3966;51.052;13.820;2022-08-21T01:55:48;18.20;99.90
7842;DHT22;3966;51.052;13.820;2022-08-21T01:58:14;18.20;99.90
7842;DHT22;3966;51.052;13.820;2022-08-21T02:00:39;18.10;99.90
7842;DHT22;3966;51.052;13.820;2022-08-21T02:03:05;18.10;99.90
7842;DHT22;3966;51.052;13.820;2022-08-21T02:05:31;18.10;99.90
7842;DHT22;3966;51.052;13.820;2022-08-21T02:07:56;18.10;99.90
7842;DHT22;3966;51.052;13.820;2022-08-21T02:10:28;18.10;99.90
7842;DHT22;3966;51.052;13.820;2022-08-21T02:12:55;18.10;99.90
7842;DHT22;3966;51.052;13.820;2022-08-21T02:15:21;18.10;99.90
7842;DHT22;3966;51.052;13.820;2022-08-21T02:17:53;18.10;99.90
7842;DHT22;3966;51.052;13.820;2022-08-21T02:20:29;18.10;99.90
7842;DHT22;3966;51.052;13.820;2022-08-21T02:22:55;18.00;99.90
7842;DHT22;3966;51.052;13.820;2022-08-21T02:25:22;18.10;99.90
7842;DHT22;3966;51.052;13.820;2022-08-21T02:27:48;18.10;99.90
7842;DHT22;3966;51.052;13.820;2022-08-21T02:30:23;18.10;99.90
7842;DHT22;3966;51.052;13.820;2022-08-21T02:32:49;18.10;99.90
7842;DHT22;3966;51.052;13.820;2022-08-21T02:35:15;18.10;99.90
7842;DHT22;3966;51.052;13.820;2022-08-21T02:37:49;18.10;99.90
7842;DHT22;3966;51.052;13.820;2022-08-21T02:40:16;18.10;99.90
7842;DHT22;3966;51.052;13.820;2022-08-21T02:42:42;18.20;99.90
7842;DHT22;3966;51.052;13.820;2022-08-21T02:45:09;18.20;99.90
7842;DHT22;3966;51.052;13.820;2022-08-21T02:47:35;18.20;99.90
7842;DHT22;3966;51.052;13.820;2022-08-21T02:50:00;18.20;99.90
7842;DHT22;3966;51.052;13.820;2022-08-21T02:52:26;18.10;99.90
7842;DHT22;3966;51.052;13.820;2022-08-21T02:54:51;18.10;99.90
7842;DHT22;3966;51.052;13.820;2022-08-21T02:57:17;18.10;99.90
7842;DHT22;3966;51.052;13.820;2022-08-21T02:59:42;18.10;99.90
7842;DHT22;3966;51.052;13.820;2022-08-21T03:02:08;18.10;99.90
7842;DHT22;3966;51.052;13.820;2022-08-21T03:04:49;18.10;99.90
7842;DHT22;3966;51.052;13.820;2022-08-21T03:07:17;18.10;99.90
7842;DHT22;3966;51.052;13.820;2022-08-21T03:09:43;18.10;99.90
7842;DHT22;3966;51.052;13.820;2022-08-21T03:12:08;18.10;99.90
7842;DHT22;3966;51.052;13.820;2022-08-21T03:14:34;18.10;99.90
7842;DHT22;3966;51.052;13.820;2022-08-21T03:16:59;18.20;99.90
7842;DHT22;3966;51.052;13.820;2022-08-21T03:19:25;18.20;99.90
7842;DHT22;3966;51.052;13.820;2022-08-21T03:21:50;18.20;99.90
7842;DHT22;3966;51.052;13.820;2022-08-21T03:24:16;18.20;99.90
7842;DHT22;3966;51.052;13.820;2022-08-21T03:26:41;18.20;99.90
7842;DHT22;3966;51.052;13.820;2022-08-21T03:29:07;18.20;99.90
7842;DHT22;3966;51.052;13.820;2022-08-21T03:31:32;18.20;99.90
7842;DHT22;3966;51.052;13.820;2022-08-21T03:33:58;18.20;99.90
7842;DHT22;3966;51.052;13.820;2022-08-21T03:36:23;18.20;99.90
7842;DHT22;3966;51.052;13.820;2022-08-21T03:38:49;18.20;99.90
7842;DHT22;3966;51.052;13.820;2022-08-21T03:41:15;18.20;99.90
7842;DHT22;3966;51.052;13.820;2022-08-21T03:43:40;18.20;99.90
7842;DHT22;3966;51.052;13.820;2022-08-21T03:46:07;18.10;99.90
7842;DHT22;3966;51.052;13.820;2022-08-21T03:48:34;18.10;99.90
7842;DHT22;3966;51.052;13.820;2022-08-21T03:50:59;18.10;99.90
7842;DHT22;3966;51.052;13.820;2022-08-21T03:53:25;18.00;99.90
7842;DHT22;3966;51.052;13.820;2022-08-21T03:55:51;18.00;99.90
7842;DHT22;3966;51.052;13.820;2022-08-21T03:58:20;18.00;99.90
7842;DHT22;3966;51.052;13.820;2022-08-21T04:00:48;18.00;99.90
7842;DHT22;3966;51.052;13.820;2022-08-21T04:03:14;18.10;99.90
7842;DHT22;3966;51.052;13.820;2022-08-21T04:05:40;18.10;99.90
7842;DHT22;3966;51.052;13.820;2022-08-21T04:08:06;18.10;99.90
7842;DHT22;3966;51.052;13.820;2022-08-21T04:10:35;18.10;99.90
7842;DHT22;3966;51.052;13.820;2022-08-21T04:13:02;18.00;99.90
7842;DHT22;3966;51.052;13.820;2022-08-21T04:15:28;18.10;99.90
7842;DHT22;3966;51.052;13.820;2022-08-21T04:17:54;18.10;99.90
7842;DHT22;3966;51.052;13.820;2022-08-21T04:20:21;18.10;99.90
7842;DHT22;3966;51.052;13.820;2022-08-21T04:22:47;18.00;99.90
7842;DHT22;3966;51.052;13.820;2022-08-21T04:25:15;18.00;99.90
7842;DHT22;3966;51.052;13.820;2022-08-21T04:27:40;18.00;99.90
7842;DHT22;3966;51.052;13.820;2022-08-21T04:30:07;18.10;99.90
7842;DHT22;3966;51.052;13.820;2022-08-21T04:32:34;18.10;99.90
7842;DHT22;3966;51.052;13.820;2022-08-21T04:35:02;18.20;99.90
7842;DHT22;3966;51.052;13.820;2022-08-21T04:37:29;18.20;99.90
7842;DHT22;3966;51.052;13.820;2022-08-21T04:39:55;18.20;99.90
7842;DHT22;3966;51.052;13.820;2022-08-21T04:42:23;18.20;99.90
7842;DHT22;3966;51.052;13.820;2022-08-21T04:44:49;18.10;99.90
7842;DHT22;3966;51.052;13.820;2022-08-21T04:47:14;18.10;99.90
7842;DHT22;3966;51.052;13.820;2022-08-21T04:49:41;18.10;99.90
7842;DHT22;3966;51.052;13.820;2022-08-21T04:52:07;18.10;99.90
7842;DHT22;3966;51.052;13.820;2022-08-21T04:54:32;18.20;99.90
7842;DHT22;3966;51.052;13.820;2022-08-21T04:57:06;18.20;99.90
7842;DHT22;3966;51.052;13.820;2022-08-21T04:59:38;18.20;99.90
7842;DHT22;3966;51.052;13.820;2022-08-21T05:02:05;18.20;99.90
7842;DHT22;3966;51.052;13.820;2022-08-21T05:04:34;18.20;99.90
7842;DHT22;3966;51.052;13.820;2022-08-21T05:07:04;18.20;99.90
7842;DHT22;3966;51.052;13.820;2022-08-21T05:09:31;18.10;99.90
7842;DHT22;3966;51.052;13.820;2022-08-21T05:11:57;18.20;99.90
7842;DHT22;3966;51.052;13.820;2022-08-21T05:14:23;18.20;99.90
7842;DHT22;3966;51.052;13.820;2022-08-21T05:16:50;18.20;99.90
7842;DHT22;3966;51.052;13.820;2022-08-21T05:19:15;18.30;99.90
7842;DHT22;3966;51.052;13.820;2022-08-21T05:21:43;18.30;99.90
7842;DHT22;3966;51.052;13.820;2022-08-21T05:24:10;18.30;99.90
7842;DHT22;3966;51.052;13.820;2022-08-21T05:26:35;18.30;99.90
7842;DHT22;3966;51.052;13.820;2022-08-21T05:29:02;18.30;99.90
7842;DHT22;3966;51.052;13.820;2022-08-21T05:31:28;18.30;99.90
7842;DHT22;3966;51.052;13.820;2022-08-21T05:33:53;18.40;99.90
7842;DHT22;3966;51.052;13.820;2022-08-21T05:36:19;18.40;99.90
7842;DHT22;3966;51.052;13.820;2022-08-21T05:38:45;18.40;99.90
7842;DHT22;3966;51.052;13.820;2022-08-21T05:41:11;18.50;99.90
7842;DHT22;3966;51.052;13.820;2022-08-21T05:43:36;18.50;99.90
7842;DHT22;3966;51.052;13.820;2022-08-21T05:46:06;18.50;99.90
7842;DHT22;3966;51.052;13.820;2022-08-21T05:48:33;18.60;99.90
7842;DHT22;3966;51.052;13.820;2022-08-21T05:51:05;18.60;99.90
7842;DHT22;3966;51.052;13.820;2022-08-21T05:53:31;18.60;99.90
7842;DHT22;3966;51.052;13.820;2022-08-21T05:55:57;18.70;99.90
7842;DHT22;3966;51.052;13.820;2022-08-21T05:58:22;18.60;99.90
7842;DHT22;3966;51.052;13.820;2022-08-21T06:00:50;18.50;99.90
7842;DHT22;3966;51.052;13.820;2022-08-21T06:03:22;18.50;99.90
7842;DHT22;3966;51.052;13.820;2022-08-21T06:05:48;18.60;99.90
7842;DHT22;3966;51.052;13.820;2022-08-21T06:08:14;18.60;99.90
7842;DHT22;3966;51.052;13.820;2022-08-21T06:10:40;18.70;99.90
7842;DHT22;3966;51.052;13.820;2022-08-21T06:13:05;18.60;99.90
7842;DHT22;3966;51.052;13.820;2022-08-21T06:15:31;18.70;99.90
7842;DHT22;3966;51.052;13.820;2022-08-21T06:17:56;18.70;99.90
7842;DHT22;3966;51.052;13.820;2022-08-21T06:20:22;18.70;99.90
7842;DHT22;3966;51.052;13.820;2022-08-21T06:22:48;18.60;99.90
7842;DHT22;3966;51.052;13.820;2022-08-21T06:25:14;18.70;99.90
7842;DHT22;3966;51.052;13.820;2022-08-21T06:27:39;18.60;99.90
7842;DHT22;3966;51.052;13.820;2022-08-21T06:30:06;18.70;99.90
7842;DHT22;3966;51.052;13.820;2022-08-21T06:32:32;18.60;99.90
7842;DHT22;3966;51.052;13.820;2022-08-21T06:34:58;18.60;99.90
7842;DHT22;3966;51.052;13.820;2022-08-21T06:37:23;18.70;99.90
7842;DHT22;3966;51.052;13.820;2022-08-21T06:39:49;18.70;99.90
7842;DHT22;3966;51.052;13.820;2022-08-21T06:42:15;18.80;99.90
7842;DHT22;3966;51.052;13.820;2022-08-21T06:44:42;18.80;99.90
7842;DHT22;3966;51.052;13.820;2022-08-21T06:47:07;18.90;99.90
7842;DHT22;3966;51.052;13.820;2022-08-21T06:49:33;19.00;99.90
7842;DHT22;3966;51.052;13.820;2022-08-21T06:51:59;19.00;99.90
7842;DHT22;3966;51.052;13.820;2022-08-21T06:54:25;19.00;99.90
7842;DHT22;3966;51.052;13.820;2022-08-21T06:56:50;19.00;99.90
7842;DHT22;3966;51.052;13.820;2022-08-21T06:59:16;19.10;99.90
7842;DHT22;3966;51.052;13.820;2022-08-21T07:01:42;19.20;99.90
7842;DHT22;3966;51.052;13.820;2022-08-21T07:04:07;19.10;99.90
7842;DHT22;3966;51.052;13.820;2022-08-21T07:06:33;19.20;99.90
7842;DHT22;3966;51.052;13.820;2022-08-21T07:08:58;19.20;99.90
7842;DHT22;3966;51.052;13.820;2022-08-21T07:11:25;19.30;99.90
7842;DHT22;3966;51.052;13.820;2022-08-21T07:13:51;19.30;99.90
7842;DHT22;3966;51.052;13.820;2022-08-21T07:16:19;19.40;99.90
7842;DHT22;3966;51.052;13.820;2022-08-21T07:18:45;19.30;99.90
7842;DHT22;3966;51.052;13.820;2022-08-21T07:21:11;19.30;99.90
7842;DHT22;3966;51.052;13.820;2022-08-21T07:23:42;19.30;99.90
7842;DHT22;3966;51.052;13.820;2022-08-21T07:26:09;19.40;99.90
7842;DHT22;3966;51.052;13.820;2022-08-21T07:28:34;19.40;99.90
7842;DHT22;3966;51.052;13.820;2022-08-21T07:31:01;19.30;99.90
7842;DHT22;3966;51.052;13.820;2022-08-21T07:33:29;19.40;99.90
7842;DHT22;3966;51.052;13.820;2022-08-21T07:35:55;19.30;99.90
7842;DHT22;3966;51.052;13.820;2022-08-21T07:38:21;19.40;99.90
7842;DHT22;3966;51.052;13.820;2022-08-21T07:40:47;19.50;99.90
7842;DHT22;3966;51.052;13.820;2022-08-21T07:43:14;19.50;99.90
7842;DHT22;3966;51.052;13.820;2022-08-21T07:45:42;19.70;99.90
7842;DHT22;3966;51.052;13.820;2022-08-21T07:48:07;19.70;99.90
7842;DHT22;3966;51.052;13.820;2022-08-21T07:50:33;19.70;99.90
7842;DHT22;3966;51.052;13.820;2022-08-21T07:52:58;19.70;99.90
7842;DHT22;3966;51.052;13.820;2022-08-21T07:55:24;19.60;99.90
7842;DHT22;3966;51.052;13.820;2022-08-21T07:57:52;19.70;99.90
7842;DHT22;3966;51.052;13.820;2022-08-21T08:00:20;19.60;99.90
7842;DHT22;3966;51.052;13.820;2022-08-21T08:02:47;19.60;99.90
7842;DHT22;3966;51.052;13.820;2022-08-21T08:05:16;19.70;99.90
7842;DHT22;3966;51.052;13.820;2022-08-21T08:07:42;19.60;99.90
7842;DHT22;3966;51.052;13.820;2022-08-21T08:10:09;19.60;99.90
7842;DHT22;3966;51.052;13.820;2022-08-21T08:12:39;19.50;99.90
7842;DHT22;3966;51.052;13.820;2022-08-21T08:15:10;19.60;99.90
7842;DHT22;3966;51.052;13.820;2022-08-21T08:17:36;19.60;99.90
7842;DHT22;3966;51.052;13.820;2022-08-21T08:20:03;19.70;99.90
7842;DHT22;3966;51.052;13.820;2022-08-21T08:22:29;19.80;99.90
7842;DHT22;3966;51.052;13.820;2022-08-21T08:24:54;19.80;99.90
7842;DHT22;3966;51.052;13.820;2022-08-21T08:27:21;19.80;99.90
7842;DHT22;3966;51.052;13.820;2022-08-21T08:29:46;20.10;99.90
7842;DHT22;3966;51.052;13.820;2022-08-21T08:32:13;20.00;99.90
7842;DHT22;3966;51.052;13.820;2022-08-21T08:34:42;20.00;99.90
7842;DHT22;3966;51.052;13.820;2022-08-21T08:37:09;20.10;99.90
7842;DHT22;3966;51.052;13.820;2022-08-21T08:39:35;20.10;99.90
7842;DHT22;3966;51.052;13.820;2022-08-21T08:42:11;20.20;99.90
7842;DHT22;3966;51.052;13.820;2022-08-21T08:44:42;20.20;99.90
7842;DHT22;3966;51.052;13.820;2022-08-21T08:47:09;20.30;99.90
7842;DHT22;3966;51.052;13.820;2022-08-21T08:49:47;20.40;99.90
7842;DHT22;3966;51.052;13.820;2022-08-21T08:52:28;20.30;99.90
7842;DHT22;3966;51.052;13.820;2022-08-21T08:55:21;20.00;99.90
7842;DHT22;3966;51.052;13.820;2022-08-21T08:57:49;20.10;99.90
7842;DHT22;3966;51.052;13.820;2022-08-21T09:00:18;20.10;99.90
7842;DHT22;3966;51.052;13.820;2022-08-21T09:02:45;20.20;99.90
7842;DHT22;3966;51.052;13.820;2022-08-21T09:05:23;20.30;99.90
7842;DHT22;3966;51.052;13.820;2022-08-21T09:08:26;20.00;99.90
7842;DHT22;3966;51.052;13.820;2022-08-21T09:11:01;20.10;99.90
7842;DHT22;3966;51.052;13.820;2022-08-21T09:17:12;20.30;99.90
7842;DHT22;3966;51.052;13.820;2022-08-21T09:19:56;20.40;99.90
7842;DHT22;3966;51.052;13.820;2022-08-21T09:22:43;20.30;99.90
7842;DHT22;3966;51.052;13.820;2022-08-21T09:27:43;20.60;99.90
7842;DHT22;3966;51.052;13.820;2022-08-21T09:30:10;20.70;99.90
7842;DHT22;3966;51.052;13.820;2022-08-21T09:32:37;20.70;99.90
7842;DHT22;3966;51.052;13.820;2022-08-21T09:37:53;20.90;99.90
7842;DHT22;3966;51.052;13.820;2022-08-21T09:40:31;20.70;99.90
7842;DHT22;3966;51.052;13.820;2022-08-21T09:43:04;20.70;99.90
7842;DHT22;3966;51.052;13.820;2022-08-21T09:45:30;20.50;99.90
7842;DHT22;3966;51.052;13.820;2022-08-21T09:47:56;20.50;99.90
7842;DHT22;3966;51.052;13.820;2022-08-21T09:50:32;20.60;99.90
7842;DHT22;3966;51.052;13.820;2022-08-21T09:53:02;20.70;99.90
7842;DHT22;3966;51.052;13.820;2022-08-21T09:55:37;20.60;99.90
7842;DHT22;3966;51.052;13.820;2022-08-21T09:58:31;20.70;99.90
7842;DHT22;3966;51.052;13.820;2022-08-21T10:00:59;20.80;99.90
7842;DHT22;3966;51.052;13.820;2022-08-21T10:03:26;20.80;99.90
7842;DHT22;3966;51.052;13.820;2022-08-21T10:05:56;20.80;99.90
7842;DHT22;3966;51.052;13.820;2022-08-21T10:08:25;20.70;99.90
7842;DHT22;3966;51.052;13.820;2022-08-21T10:11:02;20.80;99.90
7842;DHT22;3966;51.052;13.820;2022-08-21T10:13:42;20.90;99.90
7842;DHT22;3966;51.052;13.820;2022-08-21T10:16:25;21.00;99.90
7842;DHT22;3966;51.052;13.820;2022-08-21T10:21:58;20.90;99.90
7842;DHT22;3966;51.052;13.820;2022-08-21T10:24:40;20.80;99.90
7842;DHT22;3966;51.052;13.820;2022-08-21T10:27:41;20.80;99.90
7842;DHT22;3966;51.052;13.820;2022-08-21T10:30:15;21.00;99.90
7842;DHT22;3966;51.052;13.820;2022-08-21T10:35:18;21.00;99.90
7842;DHT22;3966;51.052;13.820;2022-08-21T10:40:29;21.00;99.90
7842;DHT22;3966;51.052;13.820;2022-08-21T10:46:50;21.00;99.90
7842;DHT22;3966;51.052;13.820;2022-08-21T10:49:27;21.10;99.90
7842;DHT22;3966;51.052;13.820;2022-08-21T10:52:21;21.20;99.90
7842;DHT22;3966;51.052;13.820;2022-08-21T10:55:04;21.20;99.90
7842;DHT22;3966;51.052;13.820;2022-08-21T10:57:57;21.30;99.90
7842;DHT22;3966;51.052;13.820;2022-08-21T11:00:29;21.30;99.90
7842;DHT22;3966;51.052;13.820;2022-08-21T11:05:46;21.50;99.90
7842;DHT22;3966;51.052;13.820;2022-08-21T11:08:31;21.50;99.90
7842;DHT22;3966;51.052;13.820;2022-08-21T11:11:14;21.40;99.90
7842;DHT22;3966;51.052;13.820;2022-08-21T11:19:12;21.70;99.90
7842;DHT22;3966;51.052;13.820;2022-08-21T11:25:14;21.70;99.90
7842;DHT22;3966;51.052;13.820;2022-08-21T11:27:49;21.80;99.90
7842;DHT22;3966;51.052;13.820;2022-08-21T11:30:16;21.90;99.90
7842;DHT22;3966;51.052;13.820;2022-08-21T11:35:41;21.80;99.90
7842;DHT22;3966;51.052;13.820;2022-08-21T11:38:14;22.00;99.90
7842;DHT22;3966;51.052;13.820;2022-08-21T11:40:57;22.30;99.90
7842;DHT22;3966;51.052;13.820;2022-08-21T11:43:40;22.50;99.90
7842;DHT22;3966;51.052;13.820;2022-08-21T11:49:16;22.60;99.90
7842;DHT22;3966;51.052;13.820;2022-08-21T11:54:29;22.60;99.90
7842;DHT22;3966;51.052;13.820;2022-08-21T11:57:05;22.70;99.90
7842;DHT22;3966;51.052;13.820;2022-08-21T11:59:40;22.90;99.90
7842;DHT22;3966;51.052;13.820;2022-08-21T12:02:21;23.00;99.90
7842;DHT22;3966;51.052;13.820;2022-08-21T12:04:54;22.90;99.90
7842;DHT22;3966;51.052;13.820;2022-08-21T12:07:39;23.00;99.90
7842;DHT22;3966;51.052;13.820;2022-08-21T12:10:16;23.10;99.90
7842;DHT22;3966;51.052;13.820;2022-08-21T12:12:43;23.30;99.90
7842;DHT22;3966;51.052;13.820;2022-08-21T12:20:38;23.60;99.90
7842;DHT22;3966;51.052;13.820;2022-08-21T12:23:06;23.60;99.90
7842;DHT22;3966;51.052;13.820;2022-08-21T12:28:32;24.20;99.90
7842;DHT22;3966;51.052;13.820;2022-08-21T12:30:59;24.10;99.90
7842;DHT22;3966;51.052;13.820;2022-08-21T12:33:38;24.10;99.90
7842;DHT22;3966;51.052;13.820;2022-08-21T12:36:17;24.30;99.90
7842;DHT22;3966;51.052;13.820;2022-08-21T12:38:56;24.30;99.90
7842;DHT22;3966;51.052;13.820;2022-08-21T12:41:33;24.50;99.90
7842;DHT22;3966;51.052;13.820;2022-08-21T12:44:13;25.00;99.90
7842;DHT22;3966;51.052;13.820;2022-08-21T12:46:47;25.40;99.90
7842;DHT22;3966;51.052;13.820;2022-08-21T12:49:31;25.20;99.90
7842;DHT22;3966;51.052;13.820;2022-08-21T12:52:19;25.10;99.90
7842;DHT22;3966;51.052;13.820;2022-08-21T12:54:46;24.90;99.90
7842;DHT22;3966;51.052;13.820;2022-08-21T12:57:23;24.40;99.90
7842;DHT22;3966;51.052;13.820;2022-08-21T12:59:55;24.30;99.90
7842;DHT22;3966;51.052;13.820;2022-08-21T13:02:25;24.80;99.90
7842;DHT22;3966;51.052;13.820;2022-08-21T13:04:53;25.00;99.90
7842;DHT22;3966;51.052;13.820;2022-08-21T13:07:30;25.10;99.90
7842;DHT22;3966;51.052;13.820;2022-08-21T13:10:04;25.30;99.90
7842;DHT22;3966;51.052;13.820;2022-08-21T13:12:31;25.50;99.90
7842;DHT22;3966;51.052;13.820;2022-08-21T13:15:00;25.50;99.90
7842;DHT22;3966;51.052;13.820;2022-08-21T13:17:31;25.10;99.90
7842;DHT22;3966;51.052;13.820;2022-08-21T13:20:06;24.80;99.90
7842;DHT22;3966;51.052;13.820;2022-08-21T13:22:41;24.70;99.90
7842;DHT22;3966;51.052;13.820;2022-08-21T13:25:17;24.60;99.90
7842;DHT22;3966;51.052;13.820;2022-08-21T13:27:55;24.30;99.90
7842;DHT22;3966;51.052;13.820;2022-08-21T13:30:22;24.30;99.90
7842;DHT22;3966;51.052;13.820;2022-08-21T13:32:50;24.30;99.90
7842;DHT22;3966;51.052;13.820;2022-08-21T13:35:19;24.40;99.90
7842;DHT22;3966;51.052;13.820;2022-08-21T13:37:47;24.50;99.90
7842;DHT22;3966;51.052;13.820;2022-08-21T13:40:30;24.40;99.90
7842;DHT22;3966;51.052;13.820;2022-08-21T13:42:57;24.50;99.90
7842;DHT22;3966;51.052;13.820;2022-08-21T13:45:26;24.70;99.90
7842;DHT22;3966;51.052;13.820;2022-08-21T13:47:53;24.60;99.90
7842;DHT22;3966;51.052;13.820;2022-08-21T13:50:21;24.30;99.90
7842;DHT22;3966;51.052;13.820;2022-08-21T13:53:00;24.00;99.90
7842;DHT22;3966;51.052;13.820;2022-08-21T13:55:40;24.10;99.90
7842;DHT22;3966;51.052;13.820;2022-08-21T13:58:07;24.10;99.90
7842;DHT22;3966;51.052;13.820;2022-08-21T14:00:42;24.00;99.90
7842;DHT22;3966;51.052;13.820;2022-08-21T14:03:09;24.00;99.90
7842;DHT22;3966;51.052;13.820;2022-08-21T14:05:42;24.20;99.90
7842;DHT22;3966;51.052;13.820;2022-08-21T14:08:14;24.50;99.90
7842;DHT22;3966;51.052;13.820;2022-08-21T14:10:50;24.90;99.90
7842;DHT22;3966;51.052;13.820;2022-08-21T14:13:43;24.80;99.90
7842;DHT22;3966;51.052;13.820;2022-08-21T14:18:49;25.20;99.90
7842;DHT22;3966;51.052;13.820;2022-08-21T14:21:26;25.70;99.90
7842;DHT22;3966;51.052;13.820;2022-08-21T14:24:10;25.40;99.90
7842;DHT22;3966;51.052;13.820;2022-08-21T14:27:10;25.30;99.90
7842;DHT22;3966;51.052;13.820;2022-08-21T14:29:35;25.50;99.90
7842;DHT22;3966;51.052;13.820;2022-08-21T14:32:30;25.50;99.90
7842;DHT22;3966;51.052;13.820;2022-08-21T14:34:56;25.50;99.90
7842;DHT22;3966;51.052;13.820;2022-08-21T14:37:23;25.70;99.90
7842;DHT22;3966;51.052;13.820;2022-08-21T14:39:49;25.80;99.90
7842;DHT22;3966;51.052;13.820;2022-08-21T14:42:15;25.90;99.90
7842;DHT22;3966;51.052;13.820;2022-08-21T14:44:41;25.50;99.90
7842;DHT22;3966;51.052;13.820;2022-08-21T14:47:08;25.40;99.90
7842;DHT22;3966;51.052;13.820;2022-08-21T14:49:34;25.40;99.90
7842;DHT22;3966;51.052;13.820;2022-08-21T14:51:59;25.80;99.90
7842;DHT22;3966;51.052;13.820;2022-08-21T14:54:27;25.80;99.90
7842;DHT22;3966;51.052;13.820;2022-08-21T14:56:52;26.10;99.90
7842;DHT22;3966;51.052;13.820;2022-08-21T14:59:20;26.90;99.90
7842;DHT22;3966;51.052;13.820;2022-08-21T15:01:46;27.50;98.40
7842;DHT22;3966;51.052;13.820;2022-08-21T15:04:11;28.00;97.20
7842;DHT22;3966;51.052;13.820;2022-08-21T15:06:37;28.30;93.20
7842;DHT22;3966;51.052;13.820;2022-08-21T15:09:03;28.20;92.70
7842;DHT22;3966;51.052;13.820;2022-08-21T15:11:30;27.50;92.60
7842;DHT22;3966;51.052;13.820;2022-08-21T15:14:00;27.10;94.00
7842;DHT22;3966;51.052;13.820;2022-08-21T15:16:27;27.20;93.30
7842;DHT22;3966;51.052;13.820;2022-08-21T15:18:53;27.80;92.70
7842;DHT22;3966;51.052;13.820;2022-08-21T15:21:19;28.10;91.90
7842;DHT22;3966;51.052;13.820;2022-08-21T15:23:44;28.30;91.30
7842;DHT22;3966;51.052;13.820;2022-08-21T15:26:10;28.40;91.40
7842;DHT22;3966;51.052;13.820;2022-08-21T15:28:35;27.70;91.20
7842;DHT22;3966;51.052;13.820;2022-08-21T15:31:03;26.90;92.00
7842;DHT22;3966;51.052;13.820;2022-08-21T15:33:28;26.40;91.90
7842;DHT22;3966;51.052;13.820;2022-08-21T15:35:54;26.20;92.50
7842;DHT22;3966;51.052;13.820;2022-08-21T15:38:19;26.10;93.50
7842;DHT22;3966;51.052;13.820;2022-08-21T15:40:45;26.10;93.30
7842;DHT22;3966;51.052;13.820;2022-08-21T15:43:23;26.30;93.70
7842;DHT22;3966;51.052;13.820;2022-08-21T15:45:49;26.10;92.40
7842;DHT22;3966;51.052;13.820;2022-08-21T15:48:15;25.80;93.90
7842;DHT22;3966;51.052;13.820;2022-08-21T15:50:41;26.30;92.20
7842;DHT22;3966;51.052;13.820;2022-08-21T15:53:06;26.70;93.60
7842;DHT22;3966;51.052;13.820;2022-08-21T15:55:33;27.30;91.50
7842;DHT22;3966;51.052;13.820;2022-08-21T15:57:59;27.40;92.50
7842;DHT22;3966;51.052;13.820;2022-08-21T16:00:25;27.00;91.40
7842;DHT22;3966;51.052;13.820;2022-08-21T16:02:55;27.00;92.20
7842;DHT22;3966;51.052;13.820;2022-08-21T16:05:22;27.00;91.00
7842;DHT22;3966;51.052;13.820;2022-08-21T16:07:50;27.80;91.40
7842;DHT22;3966;51.052;13.820;2022-08-21T16:10:18;28.00;91.80
7842;DHT22;3966;51.052;13.820;2022-08-21T16:13:07;27.20;91.30
7842;DHT22;3966;51.052;13.820;2022-08-21T16:15:34;26.70;91.90
7842;DHT22;3966;51.052;13.820;2022-08-21T16:18:00;27.50;91.20
7842;DHT22;3966;51.052;13.820;2022-08-21T16:20:28;27.10;90.40
7842;DHT22;3966;51.052;13.820;2022-08-21T16:22:54;27.30;91.10
7842;DHT22;3966;51.052;13.820;2022-08-21T16:25:21;26.50;91.00
7842;DHT22;3966;51.052;13.820;2022-08-21T16:27:50;26.10;92.40
7842;DHT22;3966;51.052;13.820;2022-08-21T16:30:18;25.40;93.10
7842;DHT22;3966;51.052;13.820;2022-08-21T16:32:44;25.50;93.40
7842;DHT22;3966;51.052;13.820;2022-08-21T16:35:13;25.30;93.80
7842;DHT22;3966;51.052;13.820;2022-08-21T16:37:40;25.10;95.00
7842;DHT22;3966;51.052;13.820;2022-08-21T16:40:06;25.00;95.60
7842;DHT22;3966;51.052;13.820;2022-08-21T16:42:34;24.90;95.40
7842;DHT22;3966;51.052;13.820;2022-08-21T16:44:59;24.70;96.30
7842;DHT22;3966;51.052;13.820;2022-08-21T16:47:27;24.80;97.10
7842;DHT22;3966;51.052;13.820;2022-08-21T16:49:53;24.80;97.00
7842;DHT22;3966;51.052;13.820;2022-08-21T16:52:18;24.90;96.30